メインページ
METAR-TAF:

METAR-TAF

空港 :

アカプルコ国際空港

アカプルコ, メキシコ

緯度: 16-46N, 経度: 099-45W, 海抜: 5m

現時点の気象観測

当レポートは33分前の10:52(UTC)に作成
北/北西の風 5kt
気温 26°C
湿度 89%
気圧 1013 hPa
視程: 9.7km
高度1500ftの雲はほとんどない
高度30000ftの雲は散在している

METAR: MMAA 141052Z 33005KT 6SM FEW015 SCT300 26/24 A2991 RMK 8/102 HZY

時間: 05:25 (11:25 UTC)

予報

当レポートは5時間34分前の05:51(UTC)に作成
予報は14日の 06時(UTC)から 15日の 12時(UTC)まで有効
北/北東の風 5kt
視程: 10km
高度10000ftの雲は散在している
高度30000ftの曇り
14日の 1600時(UTC)から
南西の風 10kt
視程: 10km
高度10000ftの千切れ雲あり
高度30000ftの曇り
15日の 0200時(UTC)から
北/北東の風 5kt
視程: 10km
高度10000ftの雲は散在している
高度30000ftの千切れ雲あり

TAF: MMAA 140551Z 1406/1512 02005KT P6SM SCT100 OVC300 TX30/1420Z TN25/1412Z FM141600 23010KT P6SM BKN100 OVC300 FM150200 03005KT P6SM SCT100 BKN300

4,000以上の空港の気象観測と天気予報(METAR報とTAF報)

利用可能な観測所は地図上に黄色い丸と赤い丸で示す。

丸の上にカーソルを重ねると観測所名を参照できる。

次にクリックすると気象観測と天気予報を参照できる。

マップの切り替え:黒色「×」印の緑ボタンをクリックして拡大、「-」印の緑ボタンをクリックして縮小、緑色の三角印をクリックして隣りの地図に切り替え


METAR-TAF: